Kimberling City, Missouri
Current Conditions -  °F | °C
As of 3:55 PM on Wednesday 28 Jan 2015 (Local Time) from KFWB Reporting Station
Clear Clear  
Wind Chill: 20°   Ceiling: Unl
Heat Index: 20°   Visibility: 10mi
Dew Point:   Wind: 8mph
Humidity: 33%   Direction: 180°S
Pressure: 29.93"   Gusts: NA
Location:  36.63°N, 93.42°W
Report Text: KFWB 282155Z AUTO 18007KT 140V200 10SM CLR 20/03 A2993 RMK AO2
Loading
Personal Weather Stations






























Interactive Weather Map New forecast layout! Learn more

10-Day Weather Forecast

Advertisements
Track Severe Weather on mobile